Archival Weather

Norman Y Mineta San Jose Intl

San Jose, California (KSJC)

Report from: Thursday, February 8, 2024 2:53 AM UTC
Current time: Monday, June 24, 2024 9:19 AM UTC

Current weather – Weather history – Daily summaries
Weather forecast

Temperature10.0°C (50.0°F)
Wind chill7.7°C (45.9°F)
Dew point3.3°C (37.9°F)
Winds 9 kts (4.6 m/s, 10.4 mph) West (270°)
Visibility10 mi. (16.1 km)
Clouds Few clouds 4,200 ft. (1,280 m)
Ceiling: Broken clouds 11,000 ft. (3,353 m)
Altimeter29.79 in.Hg (1009 mB)
Precip last 3 hoursTrace
Relative humidity63 %
Density altitude-328 ft. (-100 m)
Sea-level pressure100.9 kPa (1009 mB, 29.79 in.Hg)
Remarks Automated weather observing station with precipitation discriminator
Pressure rising more quickly
Flight conditions Visual Meteorological Conditions
Raw dataKSJC 080253Z 27009KT 10SM FEW042 BKN110 10/03 A2979 RMK AO2 SLP087 60000 T01000033 53011
An error has occurred. This application may no longer respond until reloaded. Reload 🗙